createdAt,value
2023-01-01T00:01:15.763Z,214.23
2023-01-01T00:03:53.485Z,220.10
2023-01-01T00:06:25.443Z,225.73
2023-01-01T00:09:11.826Z,244.40
2023-01-01T00:11:43.574Z,234.17
2023-01-01T00:14:14.360Z,268.87
2023-01-01T00:16:48.551Z,240.27
2023-01-01T00:19:19.262Z,247.20
2023-01-01T00:21:48.656Z,253.20
2023-01-01T00:24:22.913Z,250.03
2023-01-01T00:26:51.367Z,248.30
2023-01-01T00:29:20.515Z,259.70
2023-01-01T00:31:52.273Z,253.53
2023-01-01T00:34:23.533Z,249.00
2023-01-01T00:36:53.041Z,246.37
2023-01-01T00:39:28.562Z,252.37
2023-01-01T00:42:12.578Z,256.13
2023-01-01T00:44:54.938Z,258.93
2023-01-01T00:47:34.391Z,251.93
2023-01-01T00:50:15.469Z,253.03
2023-01-01T00:52:45.962Z,250.33
2023-01-01T00:55:23.129Z,252.20
2023-01-01T00:57:53.607Z,198.17
2023-01-01T01:00:37.522Z,188.67
2023-01-01T01:03:09.303Z,198.70
2023-01-01T01:05:40.279Z,190.33
2023-01-01T01:08:10.937Z,189.93
2023-01-01T01:10:49.310Z,188.67
2023-01-01T01:13:20.913Z,164.33
2023-01-01T01:15:56.194Z,149.20
2023-01-01T01:18:32.355Z,145.43
2023-01-01T01:21:02.367Z,162.33
2023-01-01T01:23:37.519Z,159.67
2023-01-01T01:26:21.787Z,149.63
2023-01-01T01:28:59.042Z,156.80
2023-01-01T01:31:39.508Z,153.87
2023-01-01T01:34:15.995Z,157.13
2023-01-01T01:36:48.573Z,163.93
2023-01-01T01:39:20.456Z,172.47
2023-01-01T01:41:54.010Z,162.33
2023-01-01T01:44:55.166Z,158.73
2023-01-01T01:47:37.486Z,158.60
2023-01-01T01:50:10.622Z,145.30
2023-01-01T01:52:48.720Z,155.47
2023-01-01T01:55:23.319Z,172.67
2023-01-01T01:57:57.397Z,160.50
2023-01-01T02:00:26.356Z,165.40
2023-01-01T02:03:02.440Z,145.50
2023-01-01T02:05:39.452Z,127.87
2023-01-01T02:08:11.330Z,132.73
2023-01-01T02:10:40.596Z,101.77
2023-01-01T02:13:13.912Z,116.00
2023-01-01T02:15:52.337Z,80.10
2023-01-01T02:18:30.652Z,86.57
2023-01-01T02:21:05.671Z,74.57
2023-01-01T02:24:27.663Z,72.27
2023-01-01T02:27:00.895Z,60.90
2023-01-01T02:29:46.711Z,79.47
2023-01-01T02:32:22.980Z,66.20
2023-01-01T02:34:58.683Z,62.27
2023-01-01T02:37:31.823Z,59.70
2023-01-01T02:40:07.955Z,59.30
2023-01-01T02:42:40.012Z,61.73
2023-01-01T02:45:21.117Z,62.53
2023-01-01T02:47:51.001Z,54.20
2023-01-01T02:50:22.376Z,62.77
2023-01-01T02:53:03.804Z,66.57
2023-01-01T02:55:58.407Z,59.93
2023-01-01T02:58:52.025Z,57.90
2023-01-01T03:01:31.505Z,53.20
2023-01-01T03:04:08.844Z,56.30
2023-01-01T03:06:46.422Z,57.23
2023-01-01T03:09:24.824Z,56.03
2023-01-01T03:12:00.955Z,56.07
2023-01-01T03:14:37.567Z,53.97
2023-01-01T03:17:13.261Z,54.13
2023-01-01T03:19:43.678Z,57.17
2023-01-01T03:22:16.621Z,61.67
2023-01-01T03:24:55.565Z,62.20
2023-01-01T03:27:28.989Z,81.43
2023-01-01T03:30:05.984Z,81.83
2023-01-01T03:33:12.456Z,120.73
2023-01-01T03:35:51.061Z,140.37
2023-01-01T03:38:24.400Z,114.80
2023-01-01T03:41:04.987Z,139.23
2023-01-01T03:43:41.747Z,152.20
2023-01-01T03:46:24.257Z,140.53
2023-01-01T03:49:10.114Z,144.87
2023-01-01T03:51:58.607Z,128.40
2023-01-01T03:54:37.624Z,143.53
2023-01-01T03:57:12.510Z,154.50
2023-01-01T03:59:47.216Z,138.23
2023-01-01T04:02:21.427Z,128.20
2023-01-01T04:04:55.175Z,122.30
2023-01-01T04:07:32.640Z,135.07
2023-01-01T04:10:18.223Z,131.37
2023-01-01T04:12:51.586Z,124.77
2023-01-01T04:15:26.853Z,122.20
2023-01-01T04:17:56.228Z,134.73
2023-01-01T04:20:34.078Z,120.80
2023-01-01T04:23:06.480Z,126.50
2023-01-01T04:25:40.004Z,124.50
2023-01-01T04:28:21.715Z,142.13
2023-01-01T04:30:50.278Z,134.17
2023-01-01T04:33:22.591Z,131.20
2023-01-01T04:35:52.879Z,136.07
2023-01-01T04:38:23.098Z,122.20
2023-01-01T04:41:03.913Z,129.53
2023-01-01T04:43:41.712Z,125.00
2023-01-01T04:46:13.664Z,127.43
2023-01-01T04:48:50.764Z,124.80
2023-01-01T04:51:23.540Z,122.20
2023-01-01T04:53:59.655Z,122.37
2023-01-01T04:56:32.172Z,120.70
2023-01-01T04:59:05.498Z,117.73
2023-01-01T05:01:35.702Z,115.53
2023-01-01T05:04:11.611Z,111.70
2023-01-01T05:06:42.860Z,117.60
2023-01-01T05:09:11.914Z,130.07
2023-01-01T05:11:45.626Z,116.47
2023-01-01T05:14:16.180Z,114.50
2023-01-01T05:16:45.527Z,116.83
2023-01-01T05:19:22.933Z,110.17
2023-01-01T05:22:11.214Z,111.27
2023-01-01T05:24:48.507Z,110.80
2023-01-01T05:27:20.329Z,106.27
2023-01-01T05:29:58.163Z,108.20
2023-01-01T05:32:28.533Z,107.17
2023-01-01T05:35:03.148Z,112.73
2023-01-01T05:37:35.245Z,113.07
2023-01-01T05:40:09.837Z,112.50
2023-01-01T05:42:41.668Z,104.80
2023-01-01T05:45:22.761Z,123.63
2023-01-01T05:47:57.538Z,121.60
2023-01-01T05:50:28.975Z,121.43
2023-01-01T05:53:04.102Z,108.87
2023-01-01T05:55:35.917Z,104.57
2023-01-01T05:58:09.217Z,109.03
2023-01-01T06:00:40.730Z,109.40
2023-01-01T06:03:10.980Z,104.00
2023-01-01T06:05:40.428Z,101.97
2023-01-01T06:08:10.906Z,107.83
2023-01-01T06:10:40.493Z,89.53
2023-01-01T06:13:13.559Z,92.90
2023-01-01T06:15:46.846Z,87.73
2023-01-01T06:18:22.796Z,80.00
2023-01-01T06:20:52.989Z,88.83
2023-01-01T06:23:25.299Z,88.70
2023-01-01T06:25:53.728Z,73.93
2023-01-01T06:28:22.465Z,74.17
2023-01-01T06:30:51.823Z,74.13
2023-01-01T06:33:20.810Z,77.10
2023-01-01T06:35:58.002Z,74.20
2023-01-01T06:38:28.201Z,75.57
2023-01-01T06:40:58.324Z,67.80
2023-01-01T06:43:42.931Z,73.33
2023-01-01T06:46:23.751Z,74.23
2023-01-01T06:48:55.828Z,70.70
2023-01-01T06:51:32.651Z,64.30
2023-01-01T06:54:05.991Z,71.40
2023-01-01T06:56:39.468Z,68.70
2023-01-01T06:59:10.590Z,64.53
2023-01-01T07:01:48.571Z,68.10
2023-01-01T07:04:20.357Z,68.50
2023-01-01T07:06:57.327Z,71.57
2023-01-01T07:09:32.526Z,73.33
2023-01-01T07:12:04.256Z,61.20
2023-01-01T07:14:33.985Z,67.30
2023-01-01T07:17:02.295Z,64.27
2023-01-01T07:19:35.420Z,61.70
2023-01-01T07:22:04.113Z,61.97
2023-01-01T07:24:34.877Z,59.57
2023-01-01T07:27:13.781Z,58.50
2023-01-01T07:29:41.941Z,63.20
2023-01-01T07:32:14.077Z,64.90
2023-01-01T07:34:50.480Z,62.63
2023-01-01T07:37:28.017Z,63.17
2023-01-01T07:40:05.348Z,61.57
2023-01-01T07:42:37.203Z,58.10
2023-01-01T07:45:06.623Z,57.77
2023-01-01T07:47:45.021Z,57.03
2023-01-01T07:50:22.567Z,61.00
2023-01-01T07:52:54.261Z,69.00
2023-01-01T07:55:34.148Z,64.03
2023-01-01T07:58:10.379Z,56.93
2023-01-01T08:00:39.749Z,63.97
2023-01-01T08:03:11.152Z,60.97
2023-01-01T08:05:40.929Z,52.13
2023-01-01T08:08:18.607Z,62.13
2023-01-01T08:10:49.312Z,58.83
2023-01-01T08:13:20.046Z,60.20
2023-01-01T08:15:51.921Z,61.37
2023-01-01T08:18:22.637Z,60.83
2023-01-01T08:20:54.174Z,63.20
2023-01-01T08:23:25.264Z,57.50
2023-01-01T08:25:55.945Z,71.57
2023-01-01T08:28:32.345Z,63.50
2023-01-01T08:31:00.688Z,58.37
2023-01-01T08:33:39.555Z,60.30
2023-01-01T08:36:16.571Z,55.87
2023-01-01T08:38:47.942Z,58.33
2023-01-01T08:41:20.948Z,57.73
2023-01-01T08:43:50.315Z,59.13
2023-01-01T08:46:21.766Z,58.53
2023-01-01T08:48:52.300Z,59.30
2023-01-01T08:51:21.803Z,56.73
2023-01-01T08:53:54.667Z,59.87
2023-01-01T08:56:27.889Z,57.57
2023-01-01T08:59:03.601Z,51.10
2023-01-01T09:01:42.297Z,55.63
2023-01-01T09:04:15.797Z,57.10
2023-01-01T09:06:46.479Z,52.03
2023-01-01T09:09:14.762Z,53.60
2023-01-01T09:11:59.550Z,53.93
2023-01-01T09:14:28.694Z,48.70
2023-01-01T09:17:05.879Z,54.90
2023-01-01T09:19:37.654Z,51.60
2023-01-01T09:22:23.035Z,53.97
2023-01-01T09:24:53.805Z,48.27
2023-01-01T09:27:40.700Z,50.07
2023-01-01T09:30:12.157Z,45.50
2023-01-01T09:32:41.901Z,48.90
2023-01-01T09:35:19.218Z,53.53
2023-01-01T09:37:49.193Z,49.20
2023-01-01T09:40:28.114Z,49.80
2023-01-01T09:43:14.590Z,47.10
2023-01-01T09:45:55.804Z,46.50
2023-01-01T09:48:27.507Z,49.13
2023-01-01T09:51:04.485Z,46.30
2023-01-01T09:53:39.176Z,44.00
2023-01-01T09:56:10.583Z,46.17
2023-01-01T09:58:52.833Z,45.10
2023-01-01T10:01:36.001Z,44.67
2023-01-01T10:04:17.044Z,36.00
2023-01-01T10:06:58.268Z,35.90
2023-01-01T10:09:42.352Z,41.17
2023-01-01T10:12:18.305Z,41.77
2023-01-01T10:15:00.672Z,37.07
2023-01-01T10:17:36.352Z,36.80
2023-01-01T10:20:17.520Z,35.17
2023-01-01T10:22:49.270Z,31.70
2023-01-01T10:25:21.335Z,33.90
2023-01-01T10:27:59.115Z,34.77
2023-01-01T10:30:31.294Z,35.40
2023-01-01T10:33:08.641Z,38.03
2023-01-01T10:35:42.288Z,35.57
2023-01-01T10:38:26.391Z,41.57
2023-01-01T10:41:01.484Z,39.30
2023-01-01T10:43:31.957Z,39.10
2023-01-01T10:46:08.373Z,38.50
2023-01-01T10:48:41.530Z,36.60
2023-01-01T10:51:22.654Z,33.97
2023-01-01T10:54:00.207Z,38.50
2023-01-01T10:56:40.819Z,38.57
2023-01-01T10:59:36.527Z,32.00
2023-01-01T11:02:27.965Z,33.27
2023-01-01T11:05:22.062Z,42.97
2023-01-01T11:07:54.855Z,32.57
2023-01-01T11:10:26.855Z,32.73
2023-01-01T11:13:05.983Z,29.93
2023-01-01T11:15:39.519Z,31.50
2023-01-01T11:18:19.284Z,32.90
2023-01-01T11:20:54.966Z,31.90
2023-01-01T11:23:30.995Z,28.00
2023-01-01T11:26:08.492Z,32.30
2023-01-01T11:28:38.244Z,35.73
2023-01-01T11:31:12.008Z,33.27
2023-01-01T11:33:45.840Z,32.03
2023-01-01T11:36:23.929Z,32.57
2023-01-01T11:39:12.375Z,30.67
2023-01-01T11:41:46.744Z,30.10
2023-01-01T11:44:26.930Z,27.30
2023-01-01T11:46:59.470Z,29.30
2023-01-01T11:49:36.531Z,27.60
2023-01-01T11:52:30.022Z,26.03
2023-01-01T11:55:05.659Z,28.93
2023-01-01T11:57:38.332Z,28.37
2023-01-01T12:00:16.435Z,29.13
2023-01-01T12:02:54.043Z,30.90
2023-01-01T12:05:26.939Z,28.73
2023-01-01T12:08:02.334Z,28.10
2023-01-01T12:10:36.918Z,38.63
2023-01-01T12:13:11.650Z,34.13
2023-01-01T12:15:41.839Z,30.07
2023-01-01T12:18:16.910Z,30.50
2023-01-01T12:20:55.759Z,32.13
2023-01-01T12:23:27.644Z,30.47
2023-01-01T12:26:05.890Z,32.60
2023-01-01T12:28:44.266Z,33.20
2023-01-01T12:31:20.247Z,32.23
2023-01-01T12:34:01.580Z,35.37
2023-01-01T12:36:48.320Z,31.93
2023-01-01T12:39:53.719Z,29.27
2023-01-01T12:42:31.043Z,29.77
2023-01-01T12:45:18.329Z,28.93
2023-01-01T12:47:54.320Z,31.60
2023-01-01T12:50:31.291Z,28.10
2023-01-01T12:53:21.069Z,30.20
2023-01-01T12:56:10.708Z,30.00
2023-01-01T12:58:50.783Z,28.73
2023-01-01T13:01:22.777Z,30.40
2023-01-01T13:03:54.157Z,28.43
2023-01-01T13:06:28.738Z,28.77
2023-01-01T13:09:05.920Z,30.57
2023-01-01T13:11:44.554Z,30.03
2023-01-01T13:14:15.693Z,26.13
2023-01-01T13:16:49.624Z,30.13
2023-01-01T13:19:33.421Z,31.10
2023-01-01T13:22:39.154Z,31.90
2023-01-01T13:25:22.959Z,29.10
2023-01-01T13:28:07.233Z,29.00
2023-01-01T13:30:53.308Z,28.93
2023-01-01T13:33:32.184Z,30.53
2023-01-01T13:36:41.039Z,33.80
2023-01-01T13:39:10.902Z,32.70
2023-01-01T13:41:52.007Z,29.30
2023-01-01T13:44:24.004Z,31.40
2023-01-01T13:47:15.529Z,34.10
2023-01-01T13:50:00.629Z,33.67
2023-01-01T13:53:14.614Z,31.63
2023-01-01T13:56:13.521Z,33.43
2023-01-01T13:59:01.437Z,35.87
2023-01-01T14:01:50.414Z,31.03
2023-01-01T14:04:33.235Z,33.77
2023-01-01T14:07:48.919Z,34.03
2023-01-01T14:10:21.197Z,34.73
2023-01-01T14:12:52.393Z,37.67
2023-01-01T14:15:29.717Z,34.97
2023-01-01T14:18:03.371Z,39.00
2023-01-01T14:20:42.236Z,34.73
2023-01-01T14:23:15.889Z,36.93
2023-01-01T14:25:54.249Z,33.40
2023-01-01T14:28:36.595Z,35.73
2023-01-01T14:31:16.299Z,33.87
2023-01-01T14:33:49.622Z,37.93
2023-01-01T14:36:21.683Z,33.43
2023-01-01T14:38:54.249Z,35.87
2023-01-01T14:41:29.787Z,34.63
2023-01-01T14:44:00.729Z,36.00
2023-01-01T14:46:33.142Z,35.07
2023-01-01T14:49:05.992Z,37.07
2023-01-01T14:51:39.449Z,42.80
2023-01-01T14:54:17.154Z,42.73
2023-01-01T14:56:52.916Z,44.43
2023-01-01T14:59:26.160Z,43.33
2023-01-01T15:02:24.690Z,42.33
2023-01-01T15:04:54.388Z,40.73
2023-01-01T15:07:30.143Z,42.57
2023-01-01T15:10:04.293Z,41.90
2023-01-01T15:12:40.287Z,44.87
2023-01-01T15:15:39.387Z,45.13
2023-01-01T15:18:44.472Z,45.10
2023-01-01T15:21:23.515Z,42.87
2023-01-01T15:23:55.102Z,41.37
2023-01-01T15:26:30.365Z,42.10
2023-01-01T15:29:04.450Z,40.40
2023-01-01T15:31:43.930Z,46.50
2023-01-01T15:34:34.718Z,46.97
2023-01-01T15:37:18.774Z,43.00
2023-01-01T15:39:51.789Z,42.47
2023-01-01T15:42:37.724Z,43.40
2023-01-01T15:45:32.028Z,47.30
2023-01-01T15:48:25.694Z,45.50
2023-01-01T15:51:08.274Z,49.80
2023-01-01T15:53:53.718Z,38.93
2023-01-01T15:56:25.990Z,40.90
2023-01-01T15:59:02.423Z,48.60
2023-01-01T16:01:38.207Z,46.37
2023-01-01T16:04:11.193Z,40.07
2023-01-01T16:06:53.098Z,40.67
2023-01-01T16:09:23.377Z,40.40
2023-01-01T16:11:53.448Z,40.20
2023-01-01T16:14:28.469Z,39.37
2023-01-01T16:17:01.087Z,40.47
2023-01-01T16:19:32.506Z,37.07
2023-01-01T16:22:12.240Z,41.10
2023-01-01T16:24:53.720Z,39.20
2023-01-01T16:27:25.130Z,32.70
2023-01-01T16:29:59.488Z,34.83
2023-01-01T16:32:34.288Z,35.70
2023-01-01T16:35:11.672Z,38.90
2023-01-01T16:37:51.139Z,33.67
2023-01-01T16:40:23.303Z,38.43
2023-01-01T16:42:54.732Z,34.67
2023-01-01T16:45:26.893Z,34.90
2023-01-01T16:47:58.714Z,38.07
2023-01-01T16:50:32.107Z,35.57
2023-01-01T16:53:04.900Z,35.43
2023-01-01T16:55:43.020Z,39.00
2023-01-01T16:58:48.022Z,43.33
2023-01-01T17:01:04.943Z,44.60
2023-01-01T17:03:44.871Z,40.83
2023-01-01T17:06:15.783Z,45.63
2023-01-01T17:08:49.970Z,39.07
2023-01-01T17:11:25.156Z,42.73
2023-01-01T17:13:56.855Z,50.47
2023-01-01T17:16:40.124Z,39.50
2023-01-01T17:19:17.163Z,42.20
2023-01-01T17:21:48.456Z,34.57
2023-01-01T17:24:26.582Z,36.00
2023-01-01T17:27:04.371Z,36.63
2023-01-01T17:29:41.903Z,37.67
2023-01-01T17:32:13.868Z,35.40
2023-01-01T17:34:56.707Z,43.50
2023-01-01T17:37:31.053Z,35.43
2023-01-01T17:40:01.865Z,35.20
2023-01-01T17:42:36.770Z,35.53
2023-01-01T17:45:09.817Z,33.67
2023-01-01T17:47:40.767Z,32.90
2023-01-01T17:50:16.572Z,35.47
2023-01-01T17:52:47.491Z,31.10
2023-01-01T17:55:31.341Z,33.87
2023-01-01T17:58:00.909Z,31.77
2023-01-01T18:00:33.701Z,32.13
2023-01-01T18:03:09.048Z,32.67
2023-01-01T18:05:38.845Z,33.43
2023-01-01T18:08:15.169Z,31.43
2023-01-01T18:10:54.813Z,31.43
2023-01-01T18:13:27.734Z,31.47
2023-01-01T18:16:06.746Z,27.30
2023-01-01T18:18:39.185Z,32.07
2023-01-01T18:21:11.984Z,32.17
2023-01-01T18:23:50.716Z,30.27
2023-01-01T18:26:35.379Z,29.83
2023-01-01T18:29:09.707Z,27.87
2023-01-01T18:31:43.702Z,29.00
2023-01-01T18:34:21.773Z,33.70
2023-01-01T18:36:54.146Z,28.43
2023-01-01T18:39:27.829Z,29.60
2023-01-01T18:42:35.274Z,29.63
2023-01-01T18:45:33.104Z,31.10
2023-01-01T18:48:09.975Z,25.97
2023-01-01T18:50:38.441Z,29.37
2023-01-01T18:53:23.675Z,29.10
2023-01-01T18:56:03.273Z,26.33
2023-01-01T18:58:40.370Z,27.70
2023-01-01T19:01:28.322Z,25.97
2023-01-01T19:04:12.011Z,29.37
2023-01-01T19:06:47.274Z,25.10
2023-01-01T19:09:24.062Z,26.40
2023-01-01T19:11:56.730Z,29.23
2023-01-01T19:14:30.336Z,30.97
2023-01-01T19:17:04.886Z,26.90
2023-01-01T19:19:37.944Z,25.87
2023-01-01T19:22:33.925Z,26.70
2023-01-01T19:25:09.594Z,26.40
2023-01-01T19:27:49.310Z,30.57
2023-01-01T19:30:53.131Z,30.77
2023-01-01T19:33:24.169Z,29.60
2023-01-01T19:35:56.032Z,32.40
2023-01-01T19:38:30.590Z,30.50
2023-01-01T19:41:11.410Z,33.10
2023-01-01T19:43:54.149Z,34.90
2023-01-01T19:46:25.197Z,30.17
2023-01-01T19:49:09.450Z,32.40
2023-01-01T19:51:39.317Z,31.00
2023-01-01T19:54:19.837Z,31.63
2023-01-01T19:57:02.884Z,37.37
2023-01-01T19:59:33.918Z,33.70
2023-01-01T20:02:44.755Z,34.23
2023-01-01T20:05:17.193Z,34.60
2023-01-01T20:07:56.080Z,31.60
2023-01-01T20:10:34.274Z,34.23
2023-01-01T20:13:10.002Z,36.27
2023-01-01T20:15:55.854Z,34.63
2023-01-01T20:18:26.309Z,35.60
2023-01-01T20:27:11.805Z,35.30
2023-01-01T20:29:43.055Z,36.53
2023-01-01T20:32:16.010Z,31.23
2023-01-01T20:34:48.749Z,40.67
2023-01-01T20:37:41.143Z,37.40
2023-01-01T20:40:17.232Z,35.27
2023-01-01T20:42:49.968Z,39.40
2023-01-01T20:45:37.026Z,39.30
2023-01-01T20:48:19.425Z,42.43
2023-01-01T20:51:12.824Z,46.90
2023-01-01T20:53:57.000Z,39.77
2023-01-01T20:56:27.835Z,39.97
2023-01-01T20:59:02.031Z,42.43
2023-01-01T21:01:50.634Z,45.93
2023-01-01T21:04:22.021Z,42.23
2023-01-01T21:07:02.275Z,46.60
2023-01-01T21:09:54.323Z,43.17
2023-01-01T21:12:36.569Z,53.97
2023-01-01T21:15:20.456Z,49.37
2023-01-01T21:17:52.089Z,46.03
2023-01-01T21:20:30.403Z,50.43
2023-01-01T21:23:20.256Z,46.80
2023-01-01T21:26:04.816Z,51.03
2023-01-01T21:28:39.089Z,47.30
2023-01-01T21:31:11.071Z,45.23
2023-01-01T21:33:41.086Z,42.77
2023-01-01T21:36:17.252Z,44.40
2023-01-01T21:38:48.275Z,43.50
2023-01-01T21:41:25.142Z,45.00
2023-01-01T21:43:55.522Z,43.63
2023-01-01T21:46:35.881Z,43.87
2023-01-01T21:49:21.796Z,43.77
2023-01-01T21:52:00.874Z,42.97
2023-01-01T21:54:39.810Z,40.67
2023-01-01T21:57:21.079Z,42.53
2023-01-01T21:59:51.791Z,42.73
2023-01-01T22:02:39.817Z,44.10
2023-01-01T22:05:31.063Z,39.10
2023-01-01T22:08:00.372Z,42.63
2023-01-01T22:10:34.624Z,38.50
2023-01-01T22:13:15.846Z,35.77
2023-01-01T22:15:46.575Z,38.83
2023-01-01T22:18:31.147Z,37.60
2023-01-01T22:21:04.046Z,41.57
2023-01-01T22:23:41.670Z,43.93
2023-01-01T22:26:22.442Z,41.43
2023-01-01T22:28:56.312Z,38.60
2023-01-01T22:31:30.217Z,41.00
2023-01-01T22:34:03.790Z,43.90
2023-01-01T22:36:38.515Z,39.70
2023-01-01T22:39:18.323Z,37.90
2023-01-01T22:41:50.792Z,34.80
2023-01-01T22:44:22.583Z,36.73
2023-01-01T22:46:51.784Z,39.70
2023-01-01T22:49:28.665Z,37.00
2023-01-01T22:52:14.633Z,41.63
2023-01-01T22:54:48.685Z,40.67
2023-01-01T22:57:18.557Z,35.80
2023-01-01T22:59:52.375Z,36.33
2023-01-01T23:02:21.556Z,38.00
2023-01-01T23:04:50.898Z,35.43
2023-01-01T23:07:19.463Z,33.70
2023-01-01T23:09:49.152Z,33.87
2023-01-01T23:12:18.505Z,34.97
2023-01-01T23:15:04.332Z,33.60
2023-01-01T23:17:36.240Z,33.87
2023-01-01T23:20:07.483Z,34.27
2023-01-01T23:22:40.639Z,33.03
2023-01-01T23:25:19.076Z,28.83
2023-01-01T23:27:49.900Z,29.90
2023-01-01T23:30:21.388Z,29.53
2023-01-01T23:32:52.075Z,28.50
2023-01-01T23:35:22.342Z,30.03
2023-01-01T23:37:52.001Z,28.07
2023-01-01T23:40:20.681Z,30.87
2023-01-01T23:42:51.621Z,29.57
2023-01-01T23:45:27.956Z,30.33
2023-01-01T23:48:03.415Z,28.27
2023-01-01T23:50:32.519Z,33.23
2023-01-01T23:53:04.401Z,31.93
2023-01-01T23:55:40.967Z,29.97
2023-01-01T23:58:10.273Z,28.93
